createdAt,value
2022-08-12T00:00:54.166Z,18.77
2022-08-12T00:05:15.262Z,18.69
2022-08-12T00:09:35.931Z,18.45
2022-08-12T00:13:57.098Z,18.32
2022-08-12T00:18:17.977Z,18.36
2022-08-12T00:22:39.763Z,18.28
2022-08-12T00:27:02.363Z,18.18
2022-08-12T00:31:23.375Z,18.13
2022-08-12T00:35:44.445Z,18.09
2022-08-12T00:40:10.879Z,18.16
2022-08-12T00:44:15.276Z,18.06
2022-08-12T00:48:17.480Z,17.99
2022-08-12T00:52:20.603Z,17.70
2022-08-12T00:56:27.804Z,17.52
2022-08-12T01:00:29.793Z,17.51
2022-08-12T01:05:02.829Z,17.59
2022-08-12T01:09:24.698Z,17.67
2022-08-12T01:13:28.945Z,17.68
2022-08-12T01:17:31.249Z,17.69
2022-08-12T01:22:02.310Z,17.64
2022-08-12T01:26:06.886Z,17.53
2022-08-12T01:30:14.205Z,17.23
2022-08-12T01:34:35.784Z,17.20
2022-08-12T01:38:41.241Z,17.17
2022-08-12T01:42:46.894Z,17.02
2022-08-12T01:47:43.620Z,16.82
2022-08-12T01:52:21.189Z,16.85
2022-08-12T01:56:17.178Z,16.97
2022-08-12T02:00:19.883Z,17.01
2022-08-12T02:04:51.582Z,16.94
2022-08-12T02:09:22.238Z,16.96
2022-08-12T02:13:49.766Z,16.89
2022-08-12T02:18:04.666Z,16.81
2022-08-12T02:22:28.246Z,16.82
2022-08-12T02:26:33.162Z,16.69
2022-08-12T02:30:42.395Z,16.60
2022-08-12T02:34:45.058Z,16.56
2022-08-12T02:38:49.322Z,16.35
2022-08-12T02:42:57.945Z,16.25
2022-08-12T02:47:05.907Z,16.16
2022-08-12T02:51:11.823Z,16.05
2022-08-12T02:55:34.439Z,15.93
2022-08-12T02:59:37.870Z,15.86
2022-08-12T03:03:41.241Z,15.75
2022-08-12T03:07:56.068Z,15.76
2022-08-12T03:12:09.298Z,15.80
2022-08-12T03:16:11.923Z,15.73
2022-08-12T03:20:23.486Z,15.76
2022-08-12T03:24:29.937Z,15.88
2022-08-12T03:28:53.963Z,15.82
2022-08-12T03:32:57.769Z,15.87
2022-08-12T03:37:00.836Z,15.71
2022-08-12T03:41:34.890Z,15.54
2022-08-12T03:45:55.639Z,15.31
2022-08-12T03:50:18.073Z,15.24
2022-08-12T03:54:42.535Z,15.42
2022-08-12T03:59:04.009Z,15.31
2022-08-12T04:03:26.366Z,15.14
2022-08-12T04:07:31.550Z,15.03
2022-08-12T04:11:57.405Z,14.98
2022-08-12T04:16:02.130Z,15.11
2022-08-12T04:20:04.780Z,15.23
2022-08-12T04:24:07.056Z,15.33
2022-08-12T04:28:13.127Z,15.12
2022-08-12T04:32:15.929Z,14.93
2022-08-12T04:36:17.956Z,14.90
2022-08-12T04:40:28.177Z,15.07
2022-08-12T04:44:32.071Z,15.17
2022-08-12T04:48:34.274Z,15.09
2022-08-12T04:52:37.676Z,15.34
2022-08-12T04:56:40.498Z,16.77
2022-08-12T05:00:42.718Z,18.24
2022-08-12T05:04:47.545Z,19.47
2022-08-12T05:08:50.219Z,18.87
2022-08-12T05:12:56.390Z,19.90
2022-08-12T05:17:00.316Z,20.27
2022-08-12T05:21:02.376Z,20.49
2022-08-12T05:25:06.808Z,19.63
2022-08-12T05:30:06.302Z,19.08
2022-08-12T05:33:38.414Z,18.70
2022-08-12T05:37:40.523Z,18.87
2022-08-12T05:41:45.305Z,23.08
2022-08-12T05:45:47.959Z,27.27
2022-08-12T05:49:50.204Z,30.03
2022-08-12T05:53:53.926Z,31.98
2022-08-12T05:57:57.332Z,33.14
2022-08-12T06:02:12.713Z,34.19
2022-08-12T06:06:21.438Z,35.12
2022-08-12T06:10:31.585Z,36.05
2022-08-12T06:14:36.930Z,37.01
2022-08-12T06:18:41.825Z,37.85
2022-08-12T06:22:45.602Z,38.28
2022-08-12T06:26:47.628Z,38.65
2022-08-12T06:31:08.623Z,39.03
2022-08-12T06:35:23.780Z,39.52
2022-08-12T06:39:30.162Z,40.26
2022-08-12T06:44:05.726Z,40.66
2022-08-12T06:47:56.573Z,40.97
2022-08-12T06:51:58.741Z,41.07
2022-08-12T06:56:01.692Z,41.00
2022-08-12T07:00:04.861Z,41.42
2022-08-12T07:04:35.339Z,41.90
2022-08-12T07:08:32.696Z,40.91
2022-08-12T07:12:35.299Z,35.63
2022-08-12T07:16:52.505Z,31.55
2022-08-12T07:20:54.694Z,29.38
2022-08-12T07:25:15.569Z,27.98
2022-08-12T07:29:18.685Z,26.74
2022-08-12T07:33:23.347Z,26.28
2022-08-12T07:37:25.381Z,26.01
2022-08-12T07:41:30.432Z,25.88
2022-08-12T07:45:32.527Z,25.73
2022-08-12T07:49:34.594Z,25.44
2022-08-12T07:54:01.050Z,25.30
2022-08-12T07:58:05.695Z,25.31
2022-08-12T08:02:09.967Z,25.32
2022-08-12T08:06:19.952Z,25.20
2022-08-12T08:10:22.416Z,25.24
2022-08-12T08:14:29.482Z,25.27
2022-08-12T08:18:33.064Z,25.27
2022-08-12T08:22:41.302Z,25.31
2022-08-12T08:26:50.246Z,25.48
2022-08-12T08:30:52.849Z,25.39
2022-08-12T08:34:55.018Z,25.37
2022-08-12T08:38:58.069Z,25.44
2022-08-12T08:43:01.276Z,25.33
2022-08-12T08:47:05.558Z,25.42
2022-08-12T08:51:07.640Z,25.60
2022-08-12T08:55:14.184Z,25.72
2022-08-12T08:59:22.279Z,25.62
2022-08-12T09:05:07.640Z,25.65
2022-08-12T09:07:58.854Z,25.84
2022-08-12T09:12:29.351Z,25.89
2022-08-12T09:16:32.164Z,25.84
2022-08-12T09:20:40.513Z,25.81
2022-08-12T09:24:44.630Z,25.82
2022-08-12T09:28:52.929Z,25.93
2022-08-12T09:33:04.318Z,26.02
2022-08-12T09:37:19.642Z,26.24
2022-08-12T09:42:33.883Z,26.31
2022-08-12T09:46:20.625Z,26.39
2022-08-12T09:50:20.298Z,26.48
2022-08-12T09:54:33.773Z,26.63
2022-08-12T09:58:59.089Z,26.62
2022-08-12T10:03:05.833Z,26.61
2022-08-12T10:07:15.034Z,26.62
2022-08-12T10:12:11.968Z,26.67
2022-08-12T10:16:21.687Z,26.71
2022-08-12T10:20:24.292Z,26.87
2022-08-12T10:24:26.331Z,27.01
2022-08-12T10:29:02.141Z,27.04
2022-08-12T10:33:18.041Z,27.09
2022-08-12T10:38:10.626Z,27.17
2022-08-12T10:42:13.731Z,27.26
2022-08-12T10:46:18.455Z,27.32
2022-08-12T10:50:29.514Z,27.28
2022-08-12T10:54:38.216Z,27.37
2022-08-12T10:58:40.692Z,27.51
2022-08-12T11:04:26.255Z,27.61
2022-08-12T11:08:35.853Z,27.85
2022-08-12T11:12:34.791Z,27.91
2022-08-12T11:16:19.873Z,27.92
2022-08-12T11:20:20.674Z,28.03
2022-08-12T11:24:32.174Z,27.79
2022-08-12T11:28:37.412Z,27.81
2022-08-12T11:32:40.191Z,27.91
2022-08-12T11:36:54.587Z,28.03
2022-08-12T11:40:56.621Z,28.11
2022-08-12T11:45:00.006Z,28.33
2022-08-12T11:49:02.037Z,28.47
2022-08-12T11:53:04.111Z,28.35
2022-08-12T11:57:22.846Z,28.39
2022-08-12T12:02:01.267Z,28.48
2022-08-12T12:05:50.344Z,28.49
2022-08-12T12:09:53.869Z,28.48
2022-08-12T12:14:08.817Z,28.47
2022-08-12T12:18:30.742Z,28.64
2022-08-12T12:22:33.358Z,28.63
2022-08-12T12:26:36.999Z,28.71
2022-08-12T12:30:54.807Z,28.86
2022-08-12T12:35:14.020Z,28.99
2022-08-12T12:39:19.246Z,29.06
2022-08-12T12:43:28.837Z,28.81
2022-08-12T12:48:03.031Z,28.75
2022-08-12T12:52:19.614Z,28.85
2022-08-12T12:56:34.864Z,29.05
2022-08-12T13:00:42.611Z,29.32
2022-08-12T13:04:53.667Z,29.20
2022-08-12T13:08:56.862Z,29.22
2022-08-12T13:14:07.822Z,29.28
2022-08-12T13:17:45.141Z,29.34
2022-08-12T13:22:14.257Z,28.92
2022-08-12T13:26:20.157Z,28.96
2022-08-12T13:30:23.768Z,29.21
2022-08-12T13:34:31.903Z,29.37
2022-08-12T13:38:54.214Z,29.65
2022-08-12T13:43:01.446Z,30.03
2022-08-12T13:47:10.265Z,30.36
2022-08-12T13:51:24.305Z,30.36
2022-08-12T13:55:31.066Z,30.44
2022-08-12T13:59:48.556Z,29.88
2022-08-12T14:03:55.905Z,29.58
2022-08-12T14:08:06.379Z,29.37
2022-08-12T14:12:08.494Z,29.31
2022-08-12T14:16:37.781Z,29.47
2022-08-12T14:20:43.678Z,29.82
2022-08-12T14:24:52.053Z,29.91
2022-08-12T14:29:01.827Z,30.08
2022-08-12T14:33:10.437Z,29.88
2022-08-12T14:37:56.575Z,29.52
2022-08-12T14:41:36.888Z,29.14
2022-08-12T14:45:51.018Z,29.24
2022-08-12T14:50:37.232Z,29.60
2022-08-12T14:58:37.822Z,30.19
2022-08-12T15:02:54.077Z,30.33
2022-08-12T15:06:56.217Z,30.29
2022-08-12T15:10:59.691Z,30.02
2022-08-12T15:15:05.878Z,29.88
2022-08-12T15:20:28.304Z,29.84
2022-08-12T15:23:45.513Z,29.91
2022-08-12T15:28:04.089Z,30.02
2022-08-12T15:32:15.801Z,29.91
2022-08-12T15:36:36.552Z,29.80
2022-08-12T15:40:48.253Z,29.56
2022-08-12T15:44:50.626Z,29.42
2022-08-12T15:48:52.745Z,29.66
2022-08-12T15:52:57.430Z,29.95
2022-08-12T15:56:59.513Z,30.16
2022-08-12T16:01:01.822Z,30.21
2022-08-12T16:06:10.404Z,30.20
2022-08-12T16:10:05.015Z,30.18
2022-08-12T16:13:53.540Z,30.18
2022-08-12T16:18:17.996Z,30.16
2022-08-12T16:22:17.625Z,30.18
2022-08-12T16:26:20.466Z,30.14
2022-08-12T16:30:38.634Z,30.10
2022-08-12T16:34:55.572Z,29.99
2022-08-12T16:39:01.347Z,29.67
2022-08-12T16:43:19.689Z,29.41
2022-08-12T16:47:23.207Z,29.08
2022-08-12T16:51:29.382Z,28.77
2022-08-12T16:55:42.538Z,28.56
2022-08-12T16:59:53.878Z,28.38
2022-08-12T17:04:08.225Z,28.22
2022-08-12T17:08:11.212Z,28.18
2022-08-12T17:12:19.501Z,28.24
2022-08-12T17:16:23.989Z,28.29
2022-08-12T17:20:34.925Z,28.34
2022-08-12T17:24:54.490Z,28.38
2022-08-12T17:28:59.175Z,28.40
2022-08-12T17:33:02.903Z,28.37
2022-08-12T17:37:09.140Z,28.29
2022-08-12T17:41:23.362Z,28.24
2022-08-12T17:45:42.134Z,28.16
2022-08-12T17:50:02.510Z,28.07
2022-08-12T17:54:12.380Z,28.01
2022-08-12T17:58:36.828Z,27.94
2022-08-12T18:02:41.536Z,27.82
2022-08-12T18:06:50.491Z,27.66
2022-08-12T18:11:12.211Z,27.53
2022-08-12T18:16:05.341Z,27.35
2022-08-12T18:20:05.842Z,27.18
2022-08-12T18:24:19.781Z,27.02
2022-08-12T18:28:29.071Z,26.85
2022-08-12T18:32:58.660Z,26.67
2022-08-12T18:37:26.889Z,26.53
2022-08-12T18:41:34.411Z,26.37
2022-08-12T18:45:47.127Z,26.18
2022-08-12T18:49:59.393Z,25.91
2022-08-12T18:54:06.924Z,25.63
2022-08-12T18:58:13.840Z,25.45
2022-08-12T19:02:24.948Z,25.30
2022-08-12T19:06:35.786Z,25.16
2022-08-12T19:10:43.038Z,25.10
2022-08-12T19:15:03.791Z,25.02
2022-08-12T19:19:09.668Z,24.93
2022-08-12T19:23:16.454Z,24.84
2022-08-12T19:27:19.120Z,24.78
2022-08-12T19:31:56.443Z,24.69
2022-08-12T19:36:24.651Z,24.56
2022-08-12T19:40:32.626Z,24.43
2022-08-12T19:44:37.978Z,24.28
2022-08-12T19:48:44.559Z,24.10
2022-08-12T19:53:01.791Z,23.89
2022-08-12T19:57:10.903Z,23.68
2022-08-12T20:01:14.735Z,23.50
2022-08-12T20:06:03.187Z,23.40
2022-08-12T20:09:46.968Z,23.31
2022-08-12T20:14:00.972Z,23.20
2022-08-12T20:18:03.880Z,23.00
2022-08-12T20:22:08.365Z,22.70
2022-08-12T20:26:16.938Z,22.03
2022-08-12T20:30:37.352Z,21.48
2022-08-12T20:34:44.240Z,21.29
2022-08-12T20:38:47.228Z,21.35
2022-08-12T20:42:50.519Z,21.29
2022-08-12T20:46:58.282Z,21.19
2022-08-12T20:51:04.013Z,21.23
2022-08-12T20:55:15.673Z,21.19
2022-08-12T20:59:21.627Z,21.12
2022-08-12T21:03:52.805Z,21.06
2022-08-12T21:08:01.700Z,21.04
2022-08-12T21:12:05.946Z,21.02
2022-08-12T21:16:36.026Z,20.91
2022-08-12T21:20:41.910Z,20.74
2022-08-12T21:24:46.558Z,20.49
2022-08-12T21:28:56.538Z,20.30
2022-08-12T21:33:01.242Z,20.22
2022-08-12T21:37:26.591Z,20.20
2022-08-12T21:41:31.176Z,20.18
2022-08-12T21:45:45.888Z,20.23
2022-08-12T21:50:06.754Z,20.25
2022-08-12T21:54:10.155Z,20.24
2022-08-12T21:58:16.720Z,20.08
2022-08-12T22:02:37.650Z,19.94
2022-08-12T22:06:43.941Z,19.81
2022-08-12T22:10:46.689Z,19.76
2022-08-12T22:14:48.841Z,19.51
2022-08-12T22:18:51.443Z,19.22
2022-08-12T22:22:56.025Z,19.10
2022-08-12T22:27:08.174Z,19.03
2022-08-12T22:31:23.072Z,19.08
2022-08-12T22:35:47.404Z,18.96
2022-08-12T22:39:56.248Z,18.78
2022-08-12T22:44:18.303Z,18.73
2022-08-12T22:48:26.633Z,18.64
2022-08-12T22:52:30.827Z,18.61
2022-08-12T22:56:35.717Z,18.56
2022-08-12T23:00:38.807Z,18.47
2022-08-12T23:04:40.889Z,18.40
2022-08-12T23:08:45.190Z,18.31
2022-08-12T23:13:06.042Z,18.21
2022-08-12T23:17:21.468Z,18.00
2022-08-12T23:22:03.631Z,17.87
2022-08-12T23:25:57.048Z,17.81
2022-08-12T23:30:17.298Z,17.63
2022-08-12T23:34:21.297Z,17.43
2022-08-12T23:38:34.618Z,17.39
2022-08-12T23:42:36.751Z,17.37
2022-08-12T23:46:48.345Z,17.43
2022-08-12T23:50:51.427Z,17.26
2022-08-12T23:54:58.246Z,17.17
2022-08-12T23:59:08.486Z,17.13
